Time;durP1;ratioP1;P1;durP2;ratioP2;P2;SDS_P1;SDS_P2;PMS_P1;PMS_P2;Temp;Humidity;BMP_temperature;BMP_pressure;BME280_temperature;BME280_humidity;BME280_pressure;Samples;Min_cycle;Max_cycle;Signal;HPM_P1;HPM_P2
2021/05/20 00:01:04;;;;;;;2.08;1.02;;;11.60;99.90;;;;;;5035005;28;20075;-83
2021/05/20 00:03:30;;;;;;;6.85;1.23;;;11.50;99.90;;;;;;5052786;28;20037;-83
2021/05/20 00:05:56;;;;;;;3.25;0.90;;;11.40;99.90;;;;;;5053161;28;20374;-82
2021/05/20 00:08:22;;;;;;;1.92;0.80;;;11.20;99.90;;;;;;5038741;28;20029;-83
2021/05/20 00:10:47;;;;;;;3.30;1.00;;;11.20;99.90;;;;;;5056462;28;20094;-82
2021/05/20 00:13:13;;;;;;;1.85;1.00;;;11.20;99.90;;;;;;5038635;28;20112;-83
2021/05/20 00:15:39;;;;;;;2.08;1.00;;;11.20;99.90;;;;;;5056463;28;20045;-82
2021/05/20 00:18:06;;;;;;;1.50;0.90;;;11.30;99.90;;;;;;5038795;28;20385;-82
2021/05/20 00:20:32;;;;;;;7.00;0.93;;;11.20;99.90;;;;;;5056352;28;20029;-82
2021/05/20 00:22:57;;;;;;;2.35;1.10;;;11.20;99.90;;;;;;5038413;28;20025;-83
2021/05/20 00:25:23;;;;;;;2.92;1.00;;;11.20;99.90;;;;;;5038385;28;20025;-83
2021/05/20 00:27:49;;;;;;;2.65;0.80;;;11.20;99.90;;;;;;5038307;28;20028;-83
2021/05/20 00:30:15;;;;;;;3.95;1.15;;;11.20;99.90;;;;;;5038198;28;20021;-83
2021/05/20 00:32:41;;;;;;;1.85;0.90;;;11.30;99.90;;;;;;5038248;28;20033;-83
2021/05/20 00:35:07;;;;;;;2.05;0.98;;;11.30;99.90;;;;;;5038261;28;20031;-84
2021/05/20 00:37:33;;;;;;;3.92;1.02;;;10.80;99.90;;;;;;5056067;28;20072;-84
2021/05/20 00:39:59;;;;;;;2.13;1.00;;;10.90;99.90;;;;;;5056042;28;20512;-84
2021/05/20 00:42:25;;;;;;;3.50;1.00;;;10.60;99.90;;;;;;5038115;28;20106;-83
2021/05/20 00:45:03;;;;;;;3.65;1.08;;;10.40;99.90;;;;;;5056186;28;20047;-84
2021/05/20 00:47:31;;;;;;;2.97;1.05;;;10.40;99.90;;;;;;5038042;28;20048;-84
2021/05/20 00:49:57;;;;;;;2.50;1.00;;;10.30;99.90;;;;;;5055697;28;20037;-84
2021/05/20 00:52:23;;;;;;;3.90;0.98;;;10.20;99.90;;;;;;5055834;28;20491;-83
2021/05/20 00:54:54;;;;;;;3.17;0.82;;;10.30;99.90;;;;;;5037913;28;20028;-83
2021/05/20 00:57:21;;;;;;;1.80;1.00;;;10.20;99.90;;;;;;5037839;28;20020;-83
2021/05/20 00:59:48;;;;;;;3.80;0.80;;;10.20;99.90;;;;;;5037697;28;20074;-84
2021/05/20 01:02:15;;;;;;;2.17;1.00;;;10.10;99.90;;;;;;5037786;28;20388;-84
2021/05/20 01:04:41;;;;;;;3.42;0.93;;;10.10;99.90;;;;;;5037716;28;20052;-84
2021/05/20 01:07:06;;;;;;;3.10;0.80;;;10.10;99.90;;;;;;5055510;28;20064;-83
2021/05/20 01:09:35;;;;;;;2.10;1.02;;;10.10;99.90;;;;;;5055470;28;20104;-83
2021/05/20 01:12:01;;;;;;;2.85;1.27;;;10.00;99.90;;;;;;5055323;28;20029;-84
2021/05/20 01:14:27;;;;;;;1.73;0.90;;;10.00;99.90;;;;;;5037493;28;20021;-83
2021/05/20 01:16:53;;;;;;;3.47;1.08;;;10.20;99.90;;;;;;5037331;28;20096;-83
2021/05/20 01:19:18;;;;;;;1.80;1.00;;;10.20;99.90;;;;;;5037381;28;20362;-83
2021/05/20 01:21:45;;;;;;;2.20;0.90;;;10.10;99.90;;;;;;5055220;28;20028;-83
2021/05/20 01:24:11;;;;;;;1.83;0.80;;;10.10;99.90;;;;;;5037282;28;20059;-83
2021/05/20 01:26:38;;;;;;;4.07;1.00;;;10.00;99.90;;;;;;5037403;28;20021;-84
2021/05/20 01:29:06;;;;;;;2.45;0.70;;;10.00;99.90;;;;;;5055088;28;20025;-83
2021/05/20 01:31:32;;;;;;;1.30;0.77;;;10.20;99.90;;;;;;5037106;28;20032;-83
2021/05/20 01:33:58;;;;;;;0.95;0.70;;;10.30;99.90;;;;;;5055178;28;20039;-84
2021/05/20 01:36:29;;;;;;;1.42;0.90;;;10.30;99.90;;;;;;5037255;28;20025;-84
2021/05/20 01:39:03;;;;;;;1.23;0.80;;;10.50;99.90;;;;;;5037142;28;20103;-84
2021/05/20 01:41:28;;;;;;;4.13;0.85;;;10.50;99.90;;;;;;5037618;28;20029;-84
2021/05/20 01:43:54;;;;;;;1.52;0.70;;;10.50;99.90;;;;;;5054864;28;20083;-83
2021/05/20 01:46:20;;;;;;;4.63;0.90;;;10.40;99.90;;;;;;5054718;28;20049;-83
2021/05/20 01:48:48;;;;;;;4.65;1.00;;;10.50;99.90;;;;;;5036914;28;20036;-83
2021/05/20 01:51:21;;;;;;;1.23;0.80;;;10.50;99.90;;;;;;5054374;28;20095;-84
2021/05/20 01:53:57;;;;;;;2.33;1.10;;;10.50;99.90;;;;;;5036799;28;20021;-83
2021/05/20 01:56:27;;;;;;;3.85;0.90;;;10.40;99.90;;;;;;5036660;28;20021;-84
2021/05/20 01:58:53;;;;;;;2.55;0.68;;;10.40;99.90;;;;;;5037220;28;20380;-83
2021/05/20 02:01:19;;;;;;;3.53;0.68;;;10.50;99.90;;;;;;5054461;28;20150;-84
2021/05/20 02:03:46;;;;;;;1.30;0.85;;;10.50;99.90;;;;;;5036566;28;20025;-84
2021/05/20 02:06:12;;;;;;;1.85;0.80;;;10.50;99.90;;;;;;5036452;28;20037;-84
2021/05/20 02:08:39;;;;;;;2.65;0.77;;;10.40;99.90;;;;;;5036509;28;20392;-84
2021/05/20 02:11:06;;;;;;;1.67;0.85;;;10.20;99.90;;;;;;5054481;28;20419;-84
2021/05/20 02:13:32;;;;;;;1.02;0.80;;;10.20;99.90;;;;;;5054230;28;20021;-84
2021/05/20 02:15:58;;;;;;;4.32;1.30;;;10.00;99.90;;;;;;5036387;28;20024;-84
2021/05/20 02:18:24;;;;;;;2.80;0.80;;;10.00;99.90;;;;;;5036207;28;20024;-84
2021/05/20 02:20:49;;;;;;;3.13;0.98;;;9.80;99.90;;;;;;5036236;28;20036;-83
2021/05/20 02:23:16;;;;;;;2.25;0.88;;;9.50;99.90;;;;;;5054343;28;20096;-83
2021/05/20 02:25:42;;;;;;;1.50;0.90;;;9.30;99.90;;;;;;5054003;28;20053;-83
2021/05/20 02:28:08;;;;;;;1.58;0.95;;;9.50;99.90;;;;;;5036101;28;20039;-83
2021/05/20 02:30:35;;;;;;;0.93;0.80;;;9.30;99.90;;;;;;5053382;28;20499;-83
2021/05/20 02:33:01;;;;;;;1.98;0.90;;;9.20;99.90;;;;;;5036037;28;20116;-84
2021/05/20 02:35:27;;;;;;;1.30;0.88;;;9.40;99.90;;;;;;5035988;28;20036;-84
2021/05/20 02:37:53;;;;;;;4.70;0.82;;;9.20;99.90;;;;;;5053827;28;20021;-84
2021/05/20 02:40:20;;;;;;;2.65;0.90;;;9.30;99.90;;;;;;5035933;28;20029;-84
2021/05/20 02:42:47;;;;;;;1.42;0.93;;;9.60;99.90;;;;;;5053991;28;20021;-83
2021/05/20 02:45:19;;;;;;;2.78;0.90;;;9.80;99.90;;;;;;5035830;28;20021;-84
2021/05/20 02:47:46;;;;;;;3.92;1.00;;;9.80;99.90;;;;;;5035741;28;20025;-84
2021/05/20 02:50:14;;;;;;;3.28;0.80;;;10.00;99.90;;;;;;5035477;28;20037;-84
2021/05/20 02:52:43;;;;;;;1.48;0.82;;;10.00;99.90;;;;;;5053589;28;20017;-83
2021/05/20 02:55:13;;;;;;;2.70;1.13;;;10.10;99.90;;;;;;5035745;28;20025;-84
2021/05/20 02:57:42;;;;;;;2.70;0.98;;;9.80;99.90;;;;;;5035647;28;20021;-84
2021/05/20 03:00:10;;;;;;;3.13;1.02;;;9.70;99.90;;;;;;5035653;28;20108;-84
2021/05/20 03:02:36;;;;;;;2.80;1.15;;;9.80;99.90;;;;;;5053441;28;20053;-83
2021/05/20 03:05:02;;;;;;;1.75;0.90;;;9.80;99.90;;;;;;5035623;28;20025;-84
2021/05/20 03:07:28;;;;;;;2.28;0.90;;;9.90;99.90;;;;;;5035815;28;20061;-84
2021/05/20 03:09:53;;;;;;;2.30;1.08;;;10.10;99.90;;;;;;5035447;28;20051;-83
2021/05/20 03:12:19;;;;;;;1.95;0.90;;;10.20;99.90;;;;;;5035379;28;20481;-83
2021/05/20 03:14:45;;;;;;;2.40;1.17;;;10.10;99.90;;;;;;5035408;28;20039;-83
2021/05/20 03:17:13;;;;;;;3.65;0.90;;;10.20;99.90;;;;;;5035409;28;20043;-83
2021/05/20 03:19:39;;;;;;;1.55;0.80;;;10.30;99.90;;;;;;5035353;28;20029;-83
2021/05/20 03:22:07;;;;;;;1.30;0.70;;;10.50;99.90;;;;;;5035420;28;20503;-83
2021/05/20 03:24:34;;;;;;;1.38;0.73;;;10.60;99.90;;;;;;5035280;28;20029;-83
2021/05/20 03:27:00;;;;;;;1.60;0.65;;;10.70;99.90;;;;;;5035233;28;20433;-83
2021/05/20 03:29:26;;;;;;;0.73;0.63;;;10.70;99.90;;;;;;5035246;28;20025;-84
2021/05/20 03:31:51;;;;;;;1.67;1.00;;;10.70;99.90;;;;;;5035267;28;20032;-84
2021/05/20 03:34:17;;;;;;;1.02;0.80;;;10.60;99.90;;;;;;5035153;28;20024;-84
2021/05/20 03:36:43;;;;;;;1.95;0.75;;;10.50;99.90;;;;;;5053095;28;20046;-84
2021/05/20 03:39:08;;;;;;;3.33;0.98;;;10.60;99.90;;;;;;5053116;28;20021;-84
2021/05/20 03:41:34;;;;;;;2.72;0.80;;;10.50;99.90;;;;;;5036660;28;20029;-84
2021/05/20 03:44:00;;;;;;;0.93;0.55;;;10.50;99.90;;;;;;5039143;28;20040;-84
2021/05/20 03:46:26;;;;;;;1.20;0.50;;;10.40;99.90;;;;;;5039115;28;20028;-84
2021/05/20 03:48:51;;;;;;;1.52;0.70;;;10.40;99.90;;;;;;5039011;28;20170;-84
2021/05/20 03:51:17;;;;;;;2.20;0.70;;;10.30;99.90;;;;;;5056853;28;20084;-84
2021/05/20 03:53:43;;;;;;;1.67;0.73;;;10.40;99.90;;;;;;5056917;28;20506;-84
2021/05/20 03:56:08;;;;;;;1.83;0.70;;;10.30;99.90;;;;;;5039009;28;20491;-84
2021/05/20 03:58:34;;;;;;;2.58;0.93;;;10.30;99.90;;;;;;5039156;28;20031;-84
2021/05/20 04:01:00;;;;;;;2.47;0.70;;;10.30;99.90;;;;;;5039021;28;20154;-84
2021/05/20 04:03:30;;;;;;;1.00;0.80;;;10.30;99.90;;;;;;5038861;28;20035;-84
2021/05/20 04:06:03;;;;;;;1.58;0.70;;;10.30;99.90;;;;;;5039326;28;20025;-84
2021/05/20 04:08:29;;;;;;;1.15;0.65;;;10.40;99.90;;;;;;5057278;28;20029;-84
2021/05/20 04:10:55;;;;;;;1.15;0.68;;;10.20;99.90;;;;;;5038700;28;20033;-84
2021/05/20 04:13:41;;;;;;;2.75;0.90;;;10.30;99.90;;;;;;5056628;28;20079;-84
2021/05/20 04:16:12;;;;;;;1.27;0.75;;;10.30;99.90;;;;;;5038732;28;20508;-84
2021/05/20 04:18:38;;;;;;;1.35;0.60;;;10.40;99.90;;;;;;5056462;28;20032;-83
2021/05/20 04:21:04;;;;;;;0.85;0.75;;;10.40;99.90;;;;;;5038548;28;20025;-84
2021/05/20 04:23:30;;;;;;;1.77;0.70;;;10.40;99.90;;;;;;5038501;28;20055;-84
2021/05/20 04:25:56;;;;;;;4.13;0.75;;;10.40;99.90;;;;;;5038397;28;20504;-84
2021/05/20 04:28:22;;;;;;;1.67;0.57;;;10.50;99.90;;;;;;5038448;28;20112;-84
2021/05/20 04:30:48;;;;;;;2.67;0.75;;;10.70;99.90;;;;;;5038314;28;20541;-84
2021/05/20 04:33:14;;;;;;;1.02;0.60;;;10.70;99.90;;;;;;5056202;28;20048;-83
2021/05/20 04:35:40;;;;;;;3.60;0.70;;;10.70;99.90;;;;;;5038291;28;20488;-84
2021/05/20 04:38:07;;;;;;;1.63;0.52;;;10.60;99.90;;;;;;5038302;28;20017;-84
2021/05/20 04:40:35;;;;;;;2.08;1.40;;;10.50;99.90;;;;;;5038248;28;20036;-84
2021/05/20 04:43:01;;;;;;;2.40;1.33;;;10.50;99.90;;;;;;5038171;28;20140;-84
2021/05/20 04:45:27;;;;;;;1.65;1.00;;;10.50;99.90;;;;;;5038073;28;20032;-84
2021/05/20 04:47:53;;;;;;;2.13;0.95;;;10.60;99.90;;;;;;5038246;28;20036;-84
2021/05/20 04:50:20;;;;;;;1.90;0.77;;;10.80;99.90;;;;;;5055596;28;20112;-84
2021/05/20 04:52:46;;;;;;;3.10;1.00;;;10.70;99.90;;;;;;5055372;28;20388;-83
2021/05/20 04:55:13;;;;;;;0.52;0.40;;;10.80;99.90;;;;;;5037909;28;20021;-83
2021/05/20 04:57:39;;;;;;;2.08;0.73;;;10.90;99.90;;;;;;5038378;28;20068;-84
2021/05/20 05:00:07;;;;;;;0.88;0.73;;;11.00;99.90;;;;;;5038855;28;20109;-84
2021/05/20 05:02:33;;;;;;;0.95;0.55;;;10.90;99.90;;;;;;5037705;28;20043;-84
2021/05/20 05:05:00;;;;;;;2.35;0.80;;;10.60;99.90;;;;;;5037737;28;20492;-83
2021/05/20 05:07:25;;;;;;;1.30;0.75;;;10.30;99.90;;;;;;5037627;28;20116;-83
2021/05/20 05:09:51;;;;;;;1.05;0.80;;;10.20;99.90;;;;;;5037545;28;20112;-83
2021/05/20 05:12:17;;;;;;;1.38;0.70;;;10.20;99.90;;;;;;5037537;28;20039;-83
2021/05/20 05:14:43;;;;;;;2.78;0.73;;;10.10;99.90;;;;;;5038276;28;20035;-83
2021/05/20 05:17:08;;;;;;;1.00;0.80;;;10.00;99.90;;;;;;5037464;28;20021;-83
2021/05/20 05:19:34;;;;;;;1.33;0.70;;;10.10;99.90;;;;;;5037381;28;20068;-83
2021/05/20 05:22:02;;;;;;;1.55;0.70;;;10.00;99.90;;;;;;5037417;28;20036;-84
2021/05/20 05:24:28;;;;;;;0.85;0.75;;;10.00;99.90;;;;;;5037334;28;20377;-83
2021/05/20 05:26:54;;;;;;;5.40;0.77;;;10.20;99.90;;;;;;5037364;28;20025;-83
2021/05/20 05:29:20;;;;;;;1.70;1.10;;;10.40;99.90;;;;;;5037268;28;20146;-83
2021/05/20 05:31:46;;;;;;;1.33;0.63;;;10.60;99.90;;;;;;5055044;28;20097;-83
2021/05/20 05:34:11;;;;;;;1.05;0.57;;;10.60;99.90;;;;;;5037129;28;20025;-83
2021/05/20 05:36:38;;;;;;;2.70;0.82;;;10.60;99.90;;;;;;5037073;28;20104;-83
2021/05/20 05:39:04;;;;;;;2.65;0.70;;;10.80;99.90;;;;;;5037014;28;20021;-83
2021/05/20 05:41:30;;;;;;;1.30;0.60;;;10.80;99.90;;;;;;5036983;28;20024;-83
2021/05/20 05:43:56;;;;;;;1.10;0.60;;;10.70;99.90;;;;;;5054864;28;20029;-83
2021/05/20 05:46:21;;;;;;;1.77;0.77;;;10.70;99.90;;;;;;5036684;28;20029;-83
2021/05/20 05:48:49;;;;;;;2.00;1.10;;;10.80;99.90;;;;;;5036956;28;20111;-83
2021/05/20 05:51:16;;;;;;;2.05;0.80;;;11.00;99.90;;;;;;5018652;28;20379;-83
2021/05/20 05:53:43;;;;;;;1.08;0.80;;;11.10;99.90;;;;;;5013665;28;20026;-83
2021/05/20 05:56:09;;;;;;;2.00;0.68;;;11.00;99.90;;;;;;5014910;28;20022;-83
2021/05/20 05:58:34;;;;;;;1.23;0.75;;;11.00;99.90;;;;;;5013574;28;20018;-83
2021/05/20 06:01:01;;;;;;;1.58;0.60;;;10.90;99.90;;;;;;5014868;28;20037;-83
2021/05/20 06:03:27;;;;;;;1.38;0.80;;;10.80;99.90;;;;;;5012956;28;20049;-83
2021/05/20 06:05:53;;;;;;;1.63;0.80;;;10.90;99.90;;;;;;5013277;28;20458;-83
2021/05/20 06:08:19;;;;;;;7.22;2.45;;;10.90;99.90;;;;;;5014650;28;20034;-83
2021/05/20 06:10:45;;;;;;;1.70;0.90;;;10.90;99.90;;;;;;5013240;28;20026;-84
2021/05/20 06:13:12;;;;;;;1.25;0.80;;;11.00;99.90;;;;;;5014594;28;20029;-83
2021/05/20 06:15:38;;;;;;;1.20;0.80;;;11.10;99.90;;;;;;5013314;28;20026;-83
2021/05/20 06:18:04;;;;;;;2.20;1.50;;;10.80;99.90;;;;;;5013279;28;20025;-83
2021/05/20 06:20:30;;;;;;;1.23;0.90;;;10.80;99.90;;;;;;5013263;28;20494;-84
2021/05/20 06:22:56;;;;;;;2.33;0.90;;;10.90;99.90;;;;;;5013178;28;20029;-83
2021/05/20 06:25:23;;;;;;;2.55;1.08;;;10.90;99.90;;;;;;5013120;28;20030;-82
2021/05/20 06:27:48;;;;;;;1.83;0.80;;;11.00;99.90;;;;;;5013133;28;20026;-83
2021/05/20 06:30:15;;;;;;;1.83;1.00;;;11.10;99.90;;;;;;5013026;28;20029;-83
2021/05/20 06:32:41;;;;;;;1.08;0.70;;;11.10;99.90;;;;;;5012968;28;20033;-83
2021/05/20 06:35:07;;;;;;;2.92;1.00;;;11.20;99.90;;;;;;5012990;28;20338;-82
2021/05/20 06:37:33;;;;;;;1.77;0.80;;;11.30;99.90;;;;;;5013188;28;20504;-84
2021/05/20 06:39:59;;;;;;;1.73;1.00;;;11.30;99.90;;;;;;5013116;28;20021;-83
2021/05/20 06:42:25;;;;;;;1.25;0.90;;;11.40;99.90;;;;;;5012865;28;20069;-83
2021/05/20 06:44:50;;;;;;;1.55;0.70;;;11.50;99.90;;;;;;5012815;28;20058;-83
2021/05/20 06:47:16;;;;;;;5.15;0.98;;;11.80;99.90;;;;;;5012757;28;20552;-84
2021/05/20 06:49:42;;;;;;;3.30;0.90;;;11.80;99.90;;;;;;5016561;28;20085;-83
2021/05/20 06:52:08;;;;;;;1.52;0.80;;;11.70;99.90;;;;;;5035619;28;20029;-83
2021/05/20 06:54:34;;;;;;;3.08;0.90;;;11.80;99.90;;;;;;5035700;28;20029;-83
2021/05/20 06:57:04;;;;;;;1.30;0.90;;;11.80;99.90;;;;;;5053529;28;20025;-83
2021/05/20 07:02:14;;;;;;;2.08;0.82;;;12.00;99.90;;;;;;5054062;28;20499;-84
2021/05/20 07:04:40;;;;;;;1.15;0.80;;;11.90;99.90;;;;;;5035556;28;20029;-83
2021/05/20 07:07:06;;;;;;;3.38;0.70;;;11.90;99.90;;;;;;5035369;28;20025;-83
2021/05/20 07:09:34;;;;;;;1.90;0.70;;;12.10;99.90;;;;;;5035417;28;20028;-84
2021/05/20 07:12:00;;;;;;;0.90;0.50;;;12.20;99.90;;;;;;5035382;28;20078;-84
2021/05/20 07:14:26;;;;;;;2.20;0.82;;;12.10;99.90;;;;;;5035432;28;20021;-83
2021/05/20 07:16:52;;;;;;;1.55;0.75;;;12.00;99.90;;;;;;5035522;28;20032;-83
2021/05/20 07:19:22;;;;;;;4.28;0.90;;;12.00;99.90;;;;;;5035267;28;20036;-83
2021/05/20 07:21:51;;;;;;;1.23;0.70;;;12.10;99.90;;;;;;5035342;28;20025;-82
2021/05/20 07:24:17;;;;;;;1.63;0.60;;;12.20;99.90;;;;;;5035324;28;20032;-83
2021/05/20 07:26:43;;;;;;;1.38;0.57;;;12.10;99.90;;;;;;5053162;28;20495;-83
2021/05/20 07:29:12;;;;;;;1.77;0.63;;;12.10;99.90;;;;;;5036402;28;20025;-82
2021/05/20 07:31:39;;;;;;;0.70;0.50;;;12.10;99.90;;;;;;5035254;28;20503;-83
2021/05/20 07:34:05;;;;;;;1.05;0.60;;;12.10;99.90;;;;;;5053060;28;20021;-82
2021/05/20 07:36:31;;;;;;;0.73;0.70;;;11.90;99.90;;;;;;5053326;28;20017;-83
2021/05/20 07:38:57;;;;;;;0.75;0.40;;;11.90;99.90;;;;;;5053071;28;20078;-83
2021/05/20 07:41:22;;;;;;;0.95;0.60;;;12.00;99.90;;;;;;5035153;28;20032;-83
2021/05/20 07:43:48;;;;;;;0.52;0.40;;;12.00;99.90;;;;;;5035163;28;20116;-82
2021/05/20 07:46:14;;;;;;;1.77;0.60;;;12.10;99.90;;;;;;5035108;28;20503;-82
2021/05/20 07:48:40;;;;;;;0.98;0.50;;;12.10;99.90;;;;;;5052929;28;20085;-82
2021/05/20 07:51:08;;;;;;;1.02;0.57;;;12.20;99.90;;;;;;5034807;28;20124;-82
2021/05/20 07:53:34;;;;;;;0.40;0.40;;;12.20;99.90;;;;;;5034954;28;20071;-82
2021/05/20 07:56:01;;;;;;;0.75;0.50;;;12.20;99.90;;;;;;5034894;28;20029;-82
2021/05/20 07:58:28;;;;;;;1.70;0.50;;;12.20;99.90;;;;;;5034969;28;20022;-83
2021/05/20 08:00:55;;;;;;;1.77;1.00;;;12.20;99.90;;;;;;5034962;28;20108;-82
2021/05/20 08:03:39;;;;;;;0.95;0.65;;;12.40;99.90;;;;;;5034957;28;20020;-83
2021/05/20 08:06:17;;;;;;;0.65;0.45;;;12.50;99.90;;;;;;5035053;28;20025;-83
2021/05/20 08:11:28;;;;;;;1.80;0.70;;;12.40;99.90;;;;;;5052913;28;20032;-82
2021/05/20 08:13:53;;;;;;;0.90;0.52;;;12.30;99.90;;;;;;5034821;28;20025;-85
2021/05/20 08:16:22;;;;;;;2.38;0.70;;;12.40;99.90;;;;;;5034865;28;20492;-84
2021/05/20 08:18:47;;;;;;;1.25;0.70;;;12.50;99.90;;;;;;5034759;28;20025;-83
2021/05/20 08:21:15;;;;;;;1.02;0.55;;;12.70;99.90;;;;;;5052940;28;20028;-84
2021/05/20 08:23:40;;;;;;;1.08;0.70;;;12.70;99.90;;;;;;5052563;28;20146;-84
2021/05/20 08:26:07;;;;;;;0.52;0.50;;;12.70;99.90;;;;;;5034735;28;20133;-84
2021/05/20 08:28:34;;;;;;;0.80;0.50;;;12.90;99.90;;;;;;5037513;28;20510;-84
2021/05/20 08:31:00;;;;;;;2.13;0.50;;;13.10;99.90;;;;;;5038263;28;20472;-83
2021/05/20 08:33:25;;;;;;;2.97;0.60;;;13.40;99.90;;;;;;5056200;28;20025;-83
2021/05/20 08:35:51;;;;;;;0.70;0.50;;;13.40;99.90;;;;;;5056254;28;20020;-84
2021/05/20 08:38:18;;;;;;;1.48;0.70;;;13.40;99.90;;;;;;5038230;28;20021;-84
2021/05/20 08:40:44;;;;;;;4.10;0.73;;;13.50;99.90;;;;;;5038153;28;20029;-84
2021/05/20 08:43:10;;;;;;;1.75;0.68;;;13.50;99.90;;;;;;5038178;28;20056;-85
2021/05/20 08:45:38;;;;;;;2.55;0.65;;;13.40;99.90;;;;;;5037925;28;20060;-85
2021/05/20 08:48:04;;;;;;;1.77;0.68;;;13.40;99.90;;;;;;5038161;28;20124;-85
2021/05/20 08:50:31;;;;;;;0.93;0.50;;;13.60;99.90;;;;;;5026112;28;20057;-83
2021/05/20 08:52:57;;;;;;;1.83;0.63;;;13.70;99.90;;;;;;5014943;28;20375;-84
2021/05/20 08:55:35;;;;;;;1.00;0.55;;;13.80;99.90;;;;;;4998636;28;20378;-85
2021/05/20 08:58:02;;;;;;;1.00;0.47;;;13.80;99.90;;;;;;5014781;28;20033;-85
2021/05/20 09:00:30;;;;;;;2.17;0.85;;;13.90;99.90;;;;;;5015851;28;20065;-84
2021/05/20 09:03:09;;;;;;;2.85;0.60;;;13.80;99.90;;;;;;5014573;28;20071;-85
2021/05/20 09:05:35;;;;;;;3.30;0.55;;;13.80;99.90;;;;;;5015812;28;20500;-86
2021/05/20 09:08:03;;;;;;;2.80;0.80;;;13.80;99.90;;;;;;5014578;28;20060;-85
2021/05/20 09:10:31;;;;;;;1.00;0.63;;;13.70;99.90;;;;;;5014472;28;20022;-86
2021/05/20 09:13:09;;;;;;;1.00;0.70;;;13.70;99.90;;;;;;5014480;28;20026;-85
2021/05/20 09:15:39;;;;;;;2.45;0.70;;;13.90;99.90;;;;;;5014501;28;20493;-85
2021/05/20 09:18:26;;;;;;;0.80;0.40;;;14.20;99.90;;;;;;5015682;28;20018;-83
2021/05/20 09:20:54;;;;;;;2.25;0.60;;;14.50;99.90;;;;;;5014316;28;20029;-84
2021/05/20 09:23:30;;;;;;;1.33;0.55;;;14.90;99.90;;;;;;5014301;28;20026;-83
2021/05/20 09:26:07;;;;;;;1.17;0.60;;;15.10;99.90;;;;;;5015813;28;20496;-84
2021/05/20 09:28:38;;;;;;;3.20;0.57;;;15.50;99.90;;;;;;5015377;28;20049;-83
2021/05/20 09:31:04;;;;;;;0.57;0.40;;;15.10;99.90;;;;;;5014137;28;20026;-85
2021/05/20 09:33:30;;;;;;;0.88;0.47;;;14.70;99.90;;;;;;5014131;28;20026;-83
2021/05/20 09:35:56;;;;;;;1.67;0.50;;;14.50;99.90;;;;;;5014051;28;20385;-84
2021/05/20 09:38:24;;;;;;;2.38;0.52;;;14.30;99.90;;;;;;5013151;28;20033;-84
2021/05/20 09:40:58;;;;;;;1.33;0.50;;;14.20;99.90;;;;;;5013620;28;20022;-86
2021/05/20 09:43:35;;;;;;;1.52;0.68;;;14.00;99.90;;;;;;5013959;28;20075;-85
2021/05/20 09:46:13;;;;;;;5.75;0.60;;;13.90;99.90;;;;;;5013826;28;20034;-84
2021/05/20 09:48:42;;;;;;;1.67;0.70;;;14.00;99.90;;;;;;5013932;28;20029;-85
2021/05/20 09:51:29;;;;;;;3.08;0.70;;;14.00;99.90;;;;;;5013507;28;20046;-85
2021/05/20 09:53:55;;;;;;;2.72;0.68;;;14.20;99.90;;;;;;5013777;28;20127;-85
2021/05/20 09:56:40;;;;;;;1.30;0.50;;;14.20;99.90;;;;;;5013704;28;20060;-86
2021/05/20 09:59:11;;;;;;;1.75;0.70;;;14.10;99.90;;;;;;5013796;28;20386;-86
2021/05/20 10:01:39;;;;;;;1.35;0.50;;;14.60;99.90;;;;;;5013615;28;20504;-84
2021/05/20 10:04:05;;;;;;;3.45;0.90;;;15.50;99.90;;;;;;5013532;28;20045;-84
2021/05/20 10:06:41;;;;;;;0.93;0.60;;;16.30;99.90;;;;;;5013506;28;20037;-83
2021/05/20 10:09:09;;;;;;;0.93;0.45;;;16.20;99.90;;;;;;5015036;28;20034;-85
2021/05/20 10:11:37;;;;;;;2.28;0.75;;;15.60;99.90;;;;;;5014619;28;20389;-86
2021/05/20 10:14:04;;;;;;;0.80;0.38;;;15.30;99.90;;;;;;5014616;28;20018;-85
2021/05/20 10:16:31;;;;;;;1.00;0.43;;;15.30;99.90;;;;;;5014601;28;20018;-85
2021/05/20 10:18:57;;;;;;;1.48;0.50;;;15.10;99.90;;;;;;5014582;28;20022;-85
2021/05/20 10:21:24;;;;;;;2.78;0.50;;;14.80;99.90;;;;;;5013256;28;20022;-85
2021/05/20 10:23:54;;;;;;;1.17;0.57;;;14.70;99.90;;;;;;5014715;28;20033;-84
2021/05/20 10:26:20;;;;;;;1.35;0.60;;;14.60;99.90;;;;;;5014409;28;20018;-85
2021/05/20 10:28:46;;;;;;;2.42;0.60;;;14.40;99.90;;;;;;5013098;28;20061;-85
2021/05/20 10:31:14;;;;;;;1.42;0.50;;;14.40;99.90;;;;;;5012995;28;20453;-85
2021/05/20 10:33:42;;;;;;;1.55;0.45;;;14.30;99.90;;;;;;5013104;28;20022;-85
2021/05/20 10:36:23;;;;;;;1.25;0.45;;;14.20;99.90;;;;;;5014282;28;20548;-85
2021/05/20 10:38:49;;;;;;;0.80;0.50;;;14.40;99.90;;;;;;5014590;28;20109;-85
2021/05/20 10:41:17;;;;;;;1.02;0.30;;;14.70;99.90;;;;;;5014272;28;20061;-85
2021/05/20 10:43:44;;;;;;;0.82;0.40;;;14.80;99.90;;;;;;5012839;28;20026;-85
2021/05/20 10:46:12;;;;;;;3.03;0.50;;;15.20;99.90;;;;;;5012730;28;20113;-85
2021/05/20 10:48:51;;;;;;;1.58;0.40;;;15.90;99.90;;;;;;5014038;28;20551;-86
2021/05/20 10:51:29;;;;;;;2.05;0.50;;;16.50;99.90;;;;;;5012148;28;20052;-85
2021/05/20 10:54:04;;;;;;;1.92;0.30;;;17.20;99.90;;;;;;5013021;28;20037;-85
2021/05/20 10:56:31;;;;;;;2.08;0.40;;;16.90;99.90;;;;;;5012672;28;20068;-85
2021/05/20 10:59:00;;;;;;;1.60;0.60;;;17.10;99.90;;;;;;5013883;28;20060;-86
2021/05/20 11:01:27;;;;;;;3.25;0.50;;;17.40;99.90;;;;;;5012563;28;20065;-85
2021/05/20 11:03:55;;;;;;;0.70;0.45;;;17.10;99.90;;;;;;5012511;28;20168;-85
2021/05/20 11:06:43;;;;;;;1.08;0.35;;;16.40;99.90;;;;;;5012559;28;20034;-86
2021/05/20 11:09:10;;;;;;;0.60;0.40;;;16.10;99.90;;;;;;5012132;28;20516;-85
2021/05/20 11:11:39;;;;;;;1.13;0.30;;;15.70;99.90;;;;;;5013699;28;20436;-86
2021/05/20 11:14:14;;;;;;;0.60;0.30;;;17.20;99.90;;;;;;5012396;28;20477;-84
2021/05/20 11:16:44;;;;;;;0.38;0.30;;;17.60;99.90;;;;;;5012202;28;20022;-85
2021/05/20 11:22:03;;;;;;;2.92;0.52;;;18.20;99.90;;;;;;5013567;28;20100;-85
2021/05/20 11:24:35;;;;;;;0.88;0.30;;;17.50;99.90;;;;;;5013549;28;20394;-85
2021/05/20 11:27:02;;;;;;;0.60;0.43;;;17.00;99.90;;;;;;5012349;28;20450;-84
2021/05/20 11:29:33;;;;;;;0.85;0.50;;;16.50;99.90;;;;;;5012258;28;20176;-85
2021/05/20 11:32:24;;;;;;;0.20;0.20;;;16.30;99.90;;;;;;5013422;28;20497;-85
2021/05/20 11:37:25;;;;;;;1.13;0.30;;;15.90;99.90;;;;;;5013736;28;20026;-84
2021/05/20 11:39:51;;;;;;;0.73;0.30;;;15.90;99.90;;;;;;5013713;28;20050;-83
2021/05/20 11:42:26;;;;;;;0.50;0.20;;;15.90;99.90;;;;;;5013397;28;20030;-85
2021/05/20 11:44:52;;;;;;;1.25;0.50;;;16.00;99.90;;;;;;5013350;28;20436;-84
2021/05/20 11:47:21;;;;;;;0.13;0.13;;;16.40;99.90;;;;;;5013286;28;20026;-84
2021/05/20 11:49:47;;;;;;;0.55;0.10;;;17.00;99.90;;;;;;5016972;28;20033;-84
2021/05/20 11:52:13;;;;;;;1.45;0.20;;;16.70;99.90;;;;;;5053171;28;20384;-84
2021/05/20 11:54:41;;;;;;;0.38;0.22;;;16.50;99.90;;;;;;5035059;28;20112;-86
2021/05/20 11:57:08;;;;;;;0.68;0.30;;;16.70;99.90;;;;;;5035011;28;20044;-84
2021/05/20 11:59:37;;;;;;;0.50;0.13;;;16.60;99.90;;;;;;5035006;28;20025;-85
2021/05/20 12:02:16;;;;;;;1.65;0.30;;;16.80;99.90;;;;;;5035580;28;20032;-85
2021/05/20 12:04:42;;;;;;;0.70;0.40;;;18.20;99.90;;;;;;5056823;28;20025;-86
2021/05/20 12:07:17;;;;;;;1.20;0.40;;;18.90;99.90;;;;;;5038850;28;20487;-85
2021/05/20 12:09:43;;;;;;;0.65;0.30;;;18.00;98.40;;;;;;5056689;28;20035;-85
2021/05/20 12:12:11;;;;;;;0.40;0.30;;;17.50;99.90;;;;;;5038667;28;20029;-85
2021/05/20 12:14:38;;;;;;;0.68;0.30;;;17.10;99.90;;;;;;5038766;28;20490;-84
2021/05/20 12:17:10;;;;;;;1.75;0.50;;;16.80;99.90;;;;;;5056593;28;20021;-84
2021/05/20 12:19:50;;;;;;;4.72;0.60;;;16.40;99.90;;;;;;5038574;28;20048;-86
2021/05/20 12:22:19;;;;;;;0.73;0.50;;;15.90;99.90;;;;;;5056473;28;20021;-85
2021/05/20 12:24:54;;;;;;;0.77;0.50;;;15.80;99.90;;;;;;5056796;28;20376;-85
2021/05/20 12:27:43;;;;;;;2.47;0.40;;;15.60;99.90;;;;;;5056433;28;20476;-86
2021/05/20 12:30:34;;;;;;;2.15;0.50;;;15.50;99.90;;;;;;5056360;28;20104;-85
2021/05/20 12:33:03;;;;;;;1.75;0.50;;;15.40;99.90;;;;;;5038349;28;20025;-85
2021/05/20 12:35:37;;;;;;;0.90;0.70;;;15.50;99.90;;;;;;5038386;28;20017;-84
2021/05/20 12:38:21;;;;;;;2.05;0.50;;;15.10;99.90;;;;;;5038132;28;20074;-85
2021/05/20 12:40:49;;;;;;;1.58;0.40;;;15.10;99.90;;;;;;5038331;28;20025;-83
2021/05/20 12:43:17;;;;;;;2.80;0.60;;;15.30;99.90;;;;;;5038095;28;20101;-86
2021/05/20 12:45:45;;;;;;;0.47;0.40;;;15.90;99.90;;;;;;5055901;28;20070;-86
2021/05/20 12:48:28;;;;;;;0.85;0.40;;;15.90;99.90;;;;;;5038128;28;20434;-86
2021/05/20 12:50:56;;;;;;;2.00;0.38;;;17.10;99.90;;;;;;5037699;28;20049;-83
2021/05/20 12:53:41;;;;;;;0.75;0.35;;;17.50;99.90;;;;;;5038071;28;20111;-85
2021/05/20 12:56:22;;;;;;;2.47;0.47;;;18.10;99.80;;;;;;5056213;28;20475;-86
2021/05/20 12:58:48;;;;;;;1.88;0.30;;;19.40;98.00;;;;;;5055814;28;20443;-84
2021/05/20 13:01:14;;;;;;;0.50;0.40;;;18.70;97.30;;;;;;5056297;28;20056;-85
2021/05/20 13:03:46;;;;;;;0.90;0.52;;;17.70;97.20;;;;;;5037781;28;20052;-85